sensor_id;sensor_type;location;lat;lon;timestamp;pressure;altitude;pressure_sealevel;temperature;humidity
10881;BME280;5493;48.884;8.338;2023-06-14T00:02:02;99646.78;;;18.40;78.66
10881;BME280;5493;48.884;8.338;2023-06-14T00:04:29;99646.69;;;18.50;77.88
10881;BME280;5493;48.884;8.338;2023-06-14T00:06:56;99648.81;;;18.25;86.09
10881;BME280;5493;48.884;8.338;2023-06-14T00:09:22;99646.28;;;17.99;89.16
10881;BME280;5493;48.884;8.338;2023-06-14T00:11:49;99645.56;;;17.84;93.21
10881;BME280;5493;48.884;8.338;2023-06-14T00:14:15;99641.56;;;17.71;90.22
10881;BME280;5493;48.884;8.338;2023-06-14T00:16:43;99637.25;;;17.55;90.77
10881;BME280;5493;48.884;8.338;2023-06-14T00:19:10;99645.91;;;17.72;92.75
10881;BME280;5493;48.884;8.338;2023-06-14T00:21:36;99639.81;;;17.90;88.69
10881;BME280;5493;48.884;8.338;2023-06-14T00:24:04;99645.78;;;17.87;90.71
10881;BME280;5493;48.884;8.338;2023-06-14T00:26:30;99649.00;;;17.99;87.92
10881;BME280;5493;48.884;8.338;2023-06-14T00:28:57;99644.19;;;17.86;91.12
10881;BME280;5493;48.884;8.338;2023-06-14T00:31:23;99646.00;;;17.57;94.14
10881;BME280;5493;48.884;8.338;2023-06-14T00:33:51;99644.78;;;17.78;88.24
10881;BME280;5493;48.884;8.338;2023-06-14T00:36:18;99641.88;;;17.64;94.52
10881;BME280;5493;48.884;8.338;2023-06-14T00:38:44;99642.69;;;17.55;95.22
10881;BME280;5493;48.884;8.338;2023-06-14T00:41:10;99639.22;;;17.44;96.08
10881;BME280;5493;48.884;8.338;2023-06-14T00:43:37;99636.59;;;17.24;93.41
10881;BME280;5493;48.884;8.338;2023-06-14T00:46:03;99640.13;;;17.25;94.01
10881;BME280;5493;48.884;8.338;2023-06-14T00:48:30;99639.88;;;17.16;92.67
10881;BME280;5493;48.884;8.338;2023-06-14T00:50:59;99637.16;;;17.21;93.10
10881;BME280;5493;48.884;8.338;2023-06-14T00:53:29;99641.91;;;16.80;98.38
10881;BME280;5493;48.884;8.338;2023-06-14T00:55:56;99648.91;;;17.06;95.70
10881;BME280;5493;48.884;8.338;2023-06-14T00:58:23;99637.16;;;17.16;91.91
10881;BME280;5493;48.884;8.338;2023-06-14T01:00:49;99641.84;;;17.00;92.20
10881;BME280;5493;48.884;8.338;2023-06-14T01:03:16;99646.03;;;16.67;98.21
10881;BME280;5493;48.884;8.338;2023-06-14T01:05:48;99641.91;;;16.80;95.38
10881;BME280;5493;48.884;8.338;2023-06-14T01:08:22;99635.91;;;16.83;97.14
10881;BME280;5493;48.884;8.338;2023-06-14T01:10:53;99640.84;;;16.61;98.90
10881;BME280;5493;48.884;8.338;2023-06-14T01:13:27;99648.75;;;16.62;100.00
10881;BME280;5493;48.884;8.338;2023-06-14T01:15:55;99649.56;;;16.63;100.00
10881;BME280;5493;48.884;8.338;2023-06-14T01:18:22;99649.56;;;16.63;99.57
10881;BME280;5493;48.884;8.338;2023-06-14T01:20:49;99652.78;;;16.75;97.03
10881;BME280;5493;48.884;8.338;2023-06-14T01:23:23;99655.56;;;16.60;99.58
10881;BME280;5493;48.884;8.338;2023-06-14T01:25:50;99642.97;;;16.79;97.22
10881;BME280;5493;48.884;8.338;2023-06-14T01:28:19;99646.22;;;16.86;98.61
10881;BME280;5493;48.884;8.338;2023-06-14T01:30:47;99638.31;;;16.95;94.58
10881;BME280;5493;48.884;8.338;2023-06-14T01:33:16;99649.81;;;16.61;99.86
10881;BME280;5493;48.884;8.338;2023-06-14T01:35:45;99652.00;;;16.64;98.43
10881;BME280;5493;48.884;8.338;2023-06-14T01:38:12;99643.84;;;16.59;99.86
10881;BME280;5493;48.884;8.338;2023-06-14T01:40:41;99644.94;;;16.58;98.82
10881;BME280;5493;48.884;8.338;2023-06-14T01:43:10;99650.34;;;16.53;100.00
10881;BME280;5493;48.884;8.338;2023-06-14T01:45:38;99644.91;;;16.48;100.00
10881;BME280;5493;48.884;8.338;2023-06-14T01:48:06;99652.28;;;16.33;100.00
10881;BME280;5493;48.884;8.338;2023-06-14T01:50:34;99658.81;;;16.16;100.00
10881;BME280;5493;48.884;8.338;2023-06-14T01:53:00;99652.53;;;16.11;100.00
10881;BME280;5493;48.884;8.338;2023-06-14T01:55:27;99661.53;;;16.16;100.00
10881;BME280;5493;48.884;8.338;2023-06-14T01:57:55;99650.38;;;16.23;100.00
10881;BME280;5493;48.884;8.338;2023-06-14T02:00:21;99655.28;;;16.26;100.00
10881;BME280;5493;48.884;8.338;2023-06-14T02:02:48;99650.09;;;16.30;100.00
10881;BME280;5493;48.884;8.338;2023-06-14T02:05:15;99653.91;;;16.29;100.00
10881;BME280;5493;48.884;8.338;2023-06-14T02:07:44;99652.28;;;16.53;100.00
10881;BME280;5493;48.884;8.338;2023-06-14T02:10:10;99656.91;;;16.57;100.00
10881;BME280;5493;48.884;8.338;2023-06-14T02:12:37;99661.78;;;16.60;100.00
10881;BME280;5493;48.884;8.338;2023-06-14T02:15:06;99656.91;;;16.42;100.00
10881;BME280;5493;48.884;8.338;2023-06-14T02:17:32;99654.72;;;16.64;98.42
10881;BME280;5493;48.884;8.338;2023-06-14T02:20:00;99654.44;;;16.61;96.56
10881;BME280;5493;48.884;8.338;2023-06-14T02:22:30;99647.38;;;16.65;96.60
10881;BME280;5493;48.884;8.338;2023-06-14T02:24:56;99649.53;;;16.48;99.93
10881;BME280;5493;48.884;8.338;2023-06-14T02:27:23;99650.63;;;16.57;96.43
10881;BME280;5493;48.884;8.338;2023-06-14T02:29:49;99650.38;;;16.63;98.49
10881;BME280;5493;48.884;8.338;2023-06-14T02:32:17;99654.72;;;16.64;96.73
10881;BME280;5493;48.884;8.338;2023-06-14T02:34:43;99655.50;;;16.50;98.76
10881;BME280;5493;48.884;8.338;2023-06-14T02:37:14;99660.16;;;16.19;100.00
10881;BME280;5493;48.884;8.338;2023-06-14T02:39:41;99662.06;;;16.18;100.00
10881;BME280;5493;48.884;8.338;2023-06-14T02:42:08;99654.97;;;16.43;100.00
10881;BME280;5493;48.884;8.338;2023-06-14T02:44:34;99656.63;;;16.49;98.53
10881;BME280;5493;48.884;8.338;2023-06-14T02:47:01;99662.34;;;16.37;100.00
10881;BME280;5493;48.884;8.338;2023-06-14T02:49:29;99661.53;;;16.42;100.00
10881;BME280;5493;48.884;8.338;2023-06-14T02:51:55;99674.03;;;16.43;100.00
10881;BME280;5493;48.884;8.338;2023-06-14T02:54:22;99686.00;;;16.27;100.00
10881;BME280;5493;48.884;8.338;2023-06-14T02:56:48;99677.00;;;16.21;100.00
10881;BME280;5493;48.884;8.338;2023-06-14T02:59:15;99677.84;;;16.16;100.00
10881;BME280;5493;48.884;8.338;2023-06-14T03:01:42;99678.03;;;15.74;100.00
10881;BME280;5493;48.884;8.338;2023-06-14T03:04:08;99677.97;;;15.49;100.00
10881;BME280;5493;48.884;8.338;2023-06-14T03:06:36;99680.72;;;15.64;100.00
10881;BME280;5493;48.884;8.338;2023-06-14T03:09:04;99686.94;;;15.60;100.00
10881;BME280;5493;48.884;8.338;2023-06-14T03:11:32;99682.97;;;15.93;100.00
10881;BME280;5493;48.884;8.338;2023-06-14T03:13:58;99685.47;;;16.19;100.00
10881;BME280;5493;48.884;8.338;2023-06-14T03:16:25;99688.72;;;16.11;100.00
10881;BME280;5493;48.884;8.338;2023-06-14T03:18:55;99694.97;;;16.02;100.00
10881;BME280;5493;48.884;8.338;2023-06-14T03:21:22;99696.50;;;15.67;100.00
10881;BME280;5493;48.884;8.338;2023-06-14T03:23:50;99706.59;;;15.77;100.00
10881;BME280;5493;48.884;8.338;2023-06-14T03:26:16;99696.13;;;15.44;100.00
10881;BME280;5493;48.884;8.338;2023-06-14T03:28:44;99708.28;;;15.31;100.00
10881;BME280;5493;48.884;8.338;2023-06-14T03:31:10;99701.97;;;15.20;100.00
10881;BME280;5493;48.884;8.338;2023-06-14T03:33:37;99699.91;;;15.43;100.00
10881;BME280;5493;48.884;8.338;2023-06-14T03:36:04;99711.78;;;15.26;100.00
10881;BME280;5493;48.884;8.338;2023-06-14T03:38:31;99711.19;;;15.19;100.00
10881;BME280;5493;48.884;8.338;2023-06-14T03:40:58;99713.41;;;15.27;100.00
10881;BME280;5493;48.884;8.338;2023-06-14T03:43:25;99718.13;;;14.95;100.00
10881;BME280;5493;48.884;8.338;2023-06-14T03:45:51;99711.88;;;14.95;100.00
10881;BME280;5493;48.884;8.338;2023-06-14T03:48:18;99716.31;;;15.11;100.00
10881;BME280;5493;48.884;8.338;2023-06-14T03:50:45;99714.97;;;15.08;100.00
10881;BME280;5493;48.884;8.338;2023-06-14T03:53:12;99732.13;;;15.19;100.00
10881;BME280;5493;48.884;8.338;2023-06-14T03:55:39;99725.34;;;15.21;100.00
10881;BME280;5493;48.884;8.338;2023-06-14T03:58:08;99730.13;;;15.04;100.00
10881;BME280;5493;48.884;8.338;2023-06-14T04:00:34;99736.31;;;14.95;100.00
10881;BME280;5493;48.884;8.338;2023-06-14T04:03:01;99729.56;;;14.97;100.00
10881;BME280;5493;48.884;8.338;2023-06-14T04:05:30;99741.53;;;15.06;100.00
10881;BME280;5493;48.884;8.338;2023-06-14T04:07:56;99739.94;;;15.10;100.00
10881;BME280;5493;48.884;8.338;2023-06-14T04:10:24;99740.66;;;15.43;100.00
10881;BME280;5493;48.884;8.338;2023-06-14T04:12:50;99748.53;;;15.39;100.00
10881;BME280;5493;48.884;8.338;2023-06-14T04:15:19;99754.72;;;15.35;100.00
10881;BME280;5493;48.884;8.338;2023-06-14T04:17:45;99751.78;;;15.36;100.00
10881;BME280;5493;48.884;8.338;2023-06-14T04:20:12;99751.06;;;15.56;100.00
10881;BME280;5493;48.884;8.338;2023-06-14T04:22:38;99755.88;;;16.11;100.00
10881;BME280;5493;48.884;8.338;2023-06-14T04:25:06;99755.66;;;16.38;98.33
10881;BME280;5493;48.884;8.338;2023-06-14T04:27:33;99756.81;;;16.67;95.81
10881;BME280;5493;48.884;8.338;2023-06-14T04:30:01;99760.59;;;16.76;94.96
10881;BME280;5493;48.884;8.338;2023-06-14T04:32:29;99764.34;;;17.31;89.69
10881;BME280;5493;48.884;8.338;2023-06-14T04:34:58;99769.19;;;17.59;86.51
10881;BME280;5493;48.884;8.338;2023-06-14T04:37:28;99765.78;;;17.97;83.03
10881;BME280;5493;48.884;8.338;2023-06-14T04:39:55;99765.41;;;18.14;81.23
10881;BME280;5493;48.884;8.338;2023-06-14T04:42:23;99765.00;;;18.36;80.49
10881;BME280;5493;48.884;8.338;2023-06-14T04:44:50;99766.06;;;18.79;77.24
10881;BME280;5493;48.884;8.338;2023-06-14T04:47:20;99764.84;;;18.95;74.13
10881;BME280;5493;48.884;8.338;2023-06-14T04:49:48;99765.06;;;19.56;69.40
10881;BME280;5493;48.884;8.338;2023-06-14T04:52:15;99771.44;;;19.46;65.88
10881;BME280;5493;48.884;8.338;2023-06-14T04:54:42;99773.41;;;19.88;64.00
10881;BME280;5493;48.884;8.338;2023-06-14T04:57:09;99778.22;;;20.15;62.62
10881;BME280;5493;48.884;8.338;2023-06-14T04:59:39;99779.31;;;20.56;61.47
10881;BME280;5493;48.884;8.338;2023-06-14T05:02:06;99779.69;;;20.69;61.79
10881;BME280;5493;48.884;8.338;2023-06-14T05:04:34;99792.03;;;20.98;58.05
10881;BME280;5493;48.884;8.338;2023-06-14T05:07:06;99797.91;;;21.10;57.09
10881;BME280;5493;48.884;8.338;2023-06-14T05:09:33;99793.06;;;21.21;56.14
10881;BME280;5493;48.884;8.338;2023-06-14T05:11:59;99799.16;;;21.18;57.91
10881;BME280;5493;48.884;8.338;2023-06-14T05:14:26;99795.66;;;21.45;57.65
10881;BME280;5493;48.884;8.338;2023-06-14T05:16:53;99789.94;;;21.09;59.30
10881;BME280;5493;48.884;8.338;2023-06-14T05:19:19;99793.50;;;20.58;64.17
10881;BME280;5493;48.884;8.338;2023-06-14T05:21:47;99797.16;;;21.05;63.95
10881;BME280;5493;48.884;8.338;2023-06-14T05:24:15;99796.47;;;21.86;59.22
10881;BME280;5493;48.884;8.338;2023-06-14T05:26:43;99791.78;;;21.87;58.79
10881;BME280;5493;48.884;8.338;2023-06-14T05:29:10;99795.59;;;21.91;58.36
10881;BME280;5493;48.884;8.338;2023-06-14T05:31:36;99796.66;;;21.90;56.74
10881;BME280;5493;48.884;8.338;2023-06-14T05:34:03;99799.50;;;21.71;58.36
10881;BME280;5493;48.884;8.338;2023-06-14T05:36:30;99801.47;;;22.47;55.07
10881;BME280;5493;48.884;8.338;2023-06-14T05:38:56;99805.59;;;22.72;54.27
10881;BME280;5493;48.884;8.338;2023-06-14T05:41:26;99804.69;;;22.27;56.82
10881;BME280;5493;48.884;8.338;2023-06-14T05:43:54;99810.06;;;21.78;58.18
10881;BME280;5493;48.884;8.338;2023-06-14T05:46:21;99806.72;;;22.35;55.78
10881;BME280;5493;48.884;8.338;2023-06-14T05:48:50;99809.09;;;22.50;56.02
10881;BME280;5493;48.884;8.338;2023-06-14T05:51:17;99811.81;;;21.87;57.65
10881;BME280;5493;48.884;8.338;2023-06-14T05:53:44;99812.44;;;21.84;58.57
10881;BME280;5493;48.884;8.338;2023-06-14T05:56:11;99813.28;;;21.98;58.28
10881;BME280;5493;48.884;8.338;2023-06-14T05:58:39;99809.28;;;22.90;54.36
10881;BME280;5493;48.884;8.338;2023-06-14T06:01:05;99817.84;;;22.88;54.00
10881;BME280;5493;48.884;8.338;2023-06-14T06:03:32;99819.97;;;22.91;54.24
10881;BME280;5493;48.884;8.338;2023-06-14T06:05:59;99819.50;;;23.20;52.13
10881;BME280;5493;48.884;8.338;2023-06-14T06:08:26;99815.84;;;23.33;52.24
10881;BME280;5493;48.884;8.338;2023-06-14T06:10:52;99825.13;;;24.08;48.01
10881;BME280;5493;48.884;8.338;2023-06-14T06:13:19;99818.28;;;23.96;48.32
10881;BME280;5493;48.884;8.338;2023-06-14T06:15:47;99814.88;;;23.91;47.14
10881;BME280;5493;48.884;8.338;2023-06-14T06:18:13;99814.91;;;24.08;46.80
10881;BME280;5493;48.884;8.338;2023-06-14T06:20:40;99823.72;;;24.27;46.25
10881;BME280;5493;48.884;8.338;2023-06-14T06:23:06;99825.44;;;23.97;47.02
10881;BME280;5493;48.884;8.338;2023-06-14T06:25:35;99823.28;;;24.34;45.36
10881;BME280;5493;48.884;8.338;2023-06-14T06:28:02;99824.25;;;24.72;44.67
10881;BME280;5493;48.884;8.338;2023-06-14T06:30:29;99826.88;;;24.52;45.13
10881;BME280;5493;48.884;8.338;2023-06-14T06:32:57;99825.88;;;24.30;45.09
10881;BME280;5493;48.884;8.338;2023-06-14T06:35:24;99819.06;;;24.71;44.77
10881;BME280;5493;48.884;8.338;2023-06-14T06:37:51;99826.69;;;24.57;44.13
10881;BME280;5493;48.884;8.338;2023-06-14T06:40:17;99826.88;;;24.94;43.94
10881;BME280;5493;48.884;8.338;2023-06-14T06:42:44;99837.91;;;24.69;44.06
10881;BME280;5493;48.884;8.338;2023-06-14T06:45:10;99838.34;;;25.31;43.49
10881;BME280;5493;48.884;8.338;2023-06-14T06:47:37;99838.06;;;25.24;44.20
10881;BME280;5493;48.884;8.338;2023-06-14T06:50:06;99845.97;;;25.51;42.51
10881;BME280;5493;48.884;8.338;2023-06-14T06:52:33;99850.69;;;25.33;43.63
10881;BME280;5493;48.884;8.338;2023-06-14T06:54:59;99853.09;;;25.43;43.12
10881;BME280;5493;48.884;8.338;2023-06-14T06:57:26;99853.56;;;25.54;42.60
10881;BME280;5493;48.884;8.338;2023-06-14T06:59:54;99853.75;;;25.95;41.84
10881;BME280;5493;48.884;8.338;2023-06-14T07:02:21;99858.06;;;26.14;42.41
10881;BME280;5493;48.884;8.338;2023-06-14T07:04:47;99859.28;;;26.33;41.63
10881;BME280;5493;48.884;8.338;2023-06-14T07:07:16;99860.28;;;26.29;42.32
10881;BME280;5493;48.884;8.338;2023-06-14T07:09:42;99859.75;;;25.98;42.63
10881;BME280;5493;48.884;8.338;2023-06-14T07:12:09;99857.84;;;26.27;42.18
10881;BME280;5493;48.884;8.338;2023-06-14T07:14:37;99858.00;;;25.93;42.24
10881;BME280;5493;48.884;8.338;2023-06-14T07:17:03;99867.41;;;26.59;41.44
10881;BME280;5493;48.884;8.338;2023-06-14T07:19:30;99869.53;;;26.33;40.88
10881;BME280;5493;48.884;8.338;2023-06-14T07:21:56;99865.88;;;26.12;42.08
10881;BME280;5493;48.884;8.338;2023-06-14T07:24:24;99871.09;;;25.67;42.59
10881;BME280;5493;48.884;8.338;2023-06-14T07:26:51;99876.81;;;26.37;41.53
10881;BME280;5493;48.884;8.338;2023-06-14T07:29:17;99874.38;;;26.65;42.28
10881;BME280;5493;48.884;8.338;2023-06-14T07:31:44;99881.34;;;26.92;42.21
10881;BME280;5493;48.884;8.338;2023-06-14T07:34:11;99882.13;;;26.51;42.95
10881;BME280;5493;48.884;8.338;2023-06-14T07:36:37;99888.28;;;26.48;42.21
10881;BME280;5493;48.884;8.338;2023-06-14T07:39:04;99876.84;;;27.20;40.29
10881;BME280;5493;48.884;8.338;2023-06-14T07:41:33;99887.41;;;27.06;41.23
10881;BME280;5493;48.884;8.338;2023-06-14T07:43:59;99876.31;;;26.44;41.90
10881;BME280;5493;48.884;8.338;2023-06-14T07:46:26;99887.31;;;26.73;41.78
10881;BME280;5493;48.884;8.338;2023-06-14T07:48:52;99891.78;;;27.07;40.50
10881;BME280;5493;48.884;8.338;2023-06-14T07:51:19;99879.53;;;26.46;41.42
10881;BME280;5493;48.884;8.338;2023-06-14T07:53:47;99889.63;;;26.92;40.54
10881;BME280;5493;48.884;8.338;2023-06-14T07:56:14;99889.81;;;28.06;40.27
10881;BME280;5493;48.884;8.338;2023-06-14T07:58:42;99887.25;;;28.01;39.60
10881;BME280;5493;48.884;8.338;2023-06-14T08:01:08;99885.06;;;26.46;42.44
10881;BME280;5493;48.884;8.338;2023-06-14T08:03:36;99880.38;;;26.88;42.31
10881;BME280;5493;48.884;8.338;2023-06-14T08:06:03;99890.69;;;26.29;42.95
10881;BME280;5493;48.884;8.338;2023-06-14T08:08:30;99888.91;;;27.57;41.13
10881;BME280;5493;48.884;8.338;2023-06-14T08:10:56;99890.38;;;27.22;40.05
10881;BME280;5493;48.884;8.338;2023-06-14T08:13:23;99891.47;;;27.09;41.14
10881;BME280;5493;48.884;8.338;2023-06-14T08:15:51;99893.41;;;28.19;40.76
10881;BME280;5493;48.884;8.338;2023-06-14T08:18:17;99899.41;;;27.52;40.39
10881;BME280;5493;48.884;8.338;2023-06-14T08:20:44;99901.44;;;27.22;41.23
10881;BME280;5493;48.884;8.338;2023-06-14T08:23:10;99896.00;;;27.46;40.32
10881;BME280;5493;48.884;8.338;2023-06-14T08:25:37;99902.53;;;27.62;40.39
10881;BME280;5493;48.884;8.338;2023-06-14T08:28:04;99904.81;;;27.60;39.89
10881;BME280;5493;48.884;8.338;2023-06-14T08:30:30;99898.38;;;27.56;39.47
10881;BME280;5493;48.884;8.338;2023-06-14T08:32:58;99903.00;;;28.21;40.42
10881;BME280;5493;48.884;8.338;2023-06-14T08:35:24;99904.97;;;28.57;38.50
10881;BME280;5493;48.884;8.338;2023-06-14T08:37:51;99889.69;;;28.03;39.08
10881;BME280;5493;48.884;8.338;2023-06-14T08:40:20;99893.59;;;28.87;37.14
10881;BME280;5493;48.884;8.338;2023-06-14T08:42:53;99895.81;;;28.08;38.08
10881;BME280;5493;48.884;8.338;2023-06-14T08:45:21;99897.09;;;28.59;37.38
10881;BME280;5493;48.884;8.338;2023-06-14T08:47:48;99896.97;;;28.44;37.78
10881;BME280;5493;48.884;8.338;2023-06-14T08:50:20;99901.38;;;28.69;36.98
10881;BME280;5493;48.884;8.338;2023-06-14T08:52:51;99895.00;;;27.96;37.49
10881;BME280;5493;48.884;8.338;2023-06-14T08:55:20;99894.56;;;28.30;38.62
10881;BME280;5493;48.884;8.338;2023-06-14T08:57:51;99894.59;;;28.18;37.58
10881;BME280;5493;48.884;8.338;2023-06-14T09:00:20;99890.50;;;28.15;37.09
10881;BME280;5493;48.884;8.338;2023-06-14T09:02:47;99898.16;;;29.07;36.53
10881;BME280;5493;48.884;8.338;2023-06-14T09:05:14;99893.50;;;28.59;36.24
10881;BME280;5493;48.884;8.338;2023-06-14T09:07:44;99888.41;;;29.13;36.75
10881;BME280;5493;48.884;8.338;2023-06-14T09:10:15;99889.09;;;29.22;36.01
10881;BME280;5493;48.884;8.338;2023-06-14T09:12:42;99892.72;;;29.38;35.50
10881;BME280;5493;48.884;8.338;2023-06-14T09:15:09;99895.19;;;28.88;35.73
10881;BME280;5493;48.884;8.338;2023-06-14T09:17:36;99887.41;;;29.05;36.08
10881;BME280;5493;48.884;8.338;2023-06-14T09:20:05;99900.31;;;28.86;35.53
10881;BME280;5493;48.884;8.338;2023-06-14T09:22:34;99897.72;;;29.05;35.40
10881;BME280;5493;48.884;8.338;2023-06-14T09:25:02;99901.78;;;29.23;35.68
10881;BME280;5493;48.884;8.338;2023-06-14T09:27:29;99905.41;;;30.10;34.63
10881;BME280;5493;48.884;8.338;2023-06-14T09:29:55;99905.03;;;29.25;33.79
10881;BME280;5493;48.884;8.338;2023-06-14T09:32:22;99906.47;;;29.47;34.44
10881;BME280;5493;48.884;8.338;2023-06-14T09:34:49;99908.44;;;29.46;34.62
10881;BME280;5493;48.884;8.338;2023-06-14T09:37:27;99913.47;;;30.00;33.79
10881;BME280;5493;48.884;8.338;2023-06-14T09:39:53;99914.41;;;29.20;34.56
10881;BME280;5493;48.884;8.338;2023-06-14T09:42:21;99915.00;;;28.62;35.46
10881;BME280;5493;48.884;8.338;2023-06-14T09:44:51;99915.97;;;30.36;34.70
10881;BME280;5493;48.884;8.338;2023-06-14T09:47:18;99914.44;;;30.54;33.95
10881;BME280;5493;48.884;8.338;2023-06-14T09:49:45;99913.69;;;29.79;32.81
10881;BME280;5493;48.884;8.338;2023-06-14T09:52:14;99921.38;;;29.54;33.07
10881;BME280;5493;48.884;8.338;2023-06-14T09:54:42;99919.34;;;30.76;32.61
10881;BME280;5493;48.884;8.338;2023-06-14T09:57:10;99923.56;;;29.76;32.68
10881;BME280;5493;48.884;8.338;2023-06-14T09:59:41;99932.94;;;30.00;33.90
10881;BME280;5493;48.884;8.338;2023-06-14T10:02:14;99907.81;;;29.53;32.23
10881;BME280;5493;48.884;8.338;2023-06-14T10:04:46;99917.63;;;29.62;32.97
10881;BME280;5493;48.884;8.338;2023-06-14T10:07:19;99917.19;;;29.76;32.59
10881;BME280;5493;48.884;8.338;2023-06-14T10:09:47;99915.63;;;29.63;32.66
10881;BME280;5493;48.884;8.338;2023-06-14T10:12:16;99916.47;;;29.79;31.60
10881;BME280;5493;48.884;8.338;2023-06-14T10:14:48;99914.47;;;30.07;31.52
10881;BME280;5493;48.884;8.338;2023-06-14T10:17:22;99902.72;;;29.27;30.08
10881;BME280;5493;48.884;8.338;2023-06-14T10:19:55;99907.56;;;30.01;29.90
10881;BME280;5493;48.884;8.338;2023-06-14T10:22:28;99903.81;;;29.10;30.26
10881;BME280;5493;48.884;8.338;2023-06-14T10:24:56;99904.22;;;29.37;30.91
10881;BME280;5493;48.884;8.338;2023-06-14T10:27:22;99901.19;;;29.85;30.83
10881;BME280;5493;48.884;8.338;2023-06-14T10:30:06;99898.91;;;29.75;31.12
10881;BME280;5493;48.884;8.338;2023-06-14T10:32:33;99897.69;;;29.88;30.84
10881;BME280;5493;48.884;8.338;2023-06-14T10:35:04;99899.19;;;30.64;30.73
10881;BME280;5493;48.884;8.338;2023-06-14T10:37:32;99911.31;;;29.93;29.77
10881;BME280;5493;48.884;8.338;2023-06-14T10:39:58;99909.53;;;29.57;29.33
10881;BME280;5493;48.884;8.338;2023-06-14T10:42:28;99912.28;;;30.32;29.54
10881;BME280;5493;48.884;8.338;2023-06-14T10:44:58;99911.78;;;30.11;28.90
10881;BME280;5493;48.884;8.338;2023-06-14T10:47:28;99912.53;;;30.93;28.77
10881;BME280;5493;48.884;8.338;2023-06-14T10:49:56;99912.25;;;31.14;28.53
10881;BME280;5493;48.884;8.338;2023-06-14T10:52:26;99910.34;;;30.83;29.38
10881;BME280;5493;48.884;8.338;2023-06-14T10:55:11;99912.03;;;30.88;28.87
10881;BME280;5493;48.884;8.338;2023-06-14T10:57:41;99913.00;;;32.14;28.43
10881;BME280;5493;48.884;8.338;2023-06-14T11:00:09;99909.41;;;32.13;27.69
10881;BME280;5493;48.884;8.338;2023-06-14T11:05:52;99906.78;;;31.40;27.95
10881;BME280;5493;48.884;8.338;2023-06-14T11:08:40;99904.75;;;32.21;26.96
10881;BME280;5493;48.884;8.338;2023-06-14T11:11:13;99899.25;;;31.02;28.54
10881;BME280;5493;48.884;8.338;2023-06-14T11:13:41;99904.59;;;31.30;28.17
10881;BME280;5493;48.884;8.338;2023-06-14T11:16:11;99895.00;;;31.47;27.30
10881;BME280;5493;48.884;8.338;2023-06-14T11:18:38;99898.47;;;31.21;26.70
10881;BME280;5493;48.884;8.338;2023-06-14T11:21:06;99902.41;;;31.39;28.21
10881;BME280;5493;48.884;8.338;2023-06-14T11:23:34;99900.69;;;31.73;27.02
10881;BME280;5493;48.884;8.338;2023-06-14T11:26:00;99901.84;;;31.11;28.13
10881;BME280;5493;48.884;8.338;2023-06-14T11:28:36;99899.00;;;30.57;27.24
10881;BME280;5493;48.884;8.338;2023-06-14T11:31:03;99904.63;;;31.11;26.94
10881;BME280;5493;48.884;8.338;2023-06-14T11:33:30;99903.00;;;31.10;26.95
10881;BME280;5493;48.884;8.338;2023-06-14T11:35:56;99911.75;;;30.93;27.47
10881;BME280;5493;48.884;8.338;2023-06-14T11:38:24;99901.97;;;31.37;27.43
10881;BME280;5493;48.884;8.338;2023-06-14T11:40:51;99900.88;;;31.84;27.47
10881;BME280;5493;48.884;8.338;2023-06-14T11:43:17;99902.34;;;31.16;27.80
10881;BME280;5493;48.884;8.338;2023-06-14T11:45:48;99899.47;;;32.16;26.52
10881;BME280;5493;48.884;8.338;2023-06-14T11:48:14;99891.47;;;33.20;25.72
10881;BME280;5493;48.884;8.338;2023-06-14T11:50:41;99894.56;;;32.09;25.53
10881;BME280;5493;48.884;8.338;2023-06-14T11:53:08;99895.22;;;32.48;25.20
10881;BME280;5493;48.884;8.338;2023-06-14T11:55:37;99886.41;;;32.46;26.73
10881;BME280;5493;48.884;8.338;2023-06-14T11:58:04;99889.94;;;31.94;25.43
10881;BME280;5493;48.884;8.338;2023-06-14T12:00:31;99886.22;;;32.85;25.39
10881;BME280;5493;48.884;8.338;2023-06-14T12:02:58;99879.19;;;32.45;26.18
10881;BME280;5493;48.884;8.338;2023-06-14T12:05:25;99887.00;;;31.64;26.41
10881;BME280;5493;48.884;8.338;2023-06-14T12:07:58;99892.22;;;31.08;26.61
10881;BME280;5493;48.884;8.338;2023-06-14T12:10:25;99883.44;;;30.71;27.43
10881;BME280;5493;48.884;8.338;2023-06-14T12:12:56;99877.63;;;31.15;27.29
10881;BME280;5493;48.884;8.338;2023-06-14T12:15:23;99873.81;;;30.03;29.02
10881;BME280;5493;48.884;8.338;2023-06-14T12:17:50;99880.63;;;30.21;28.52
10881;BME280;5493;48.884;8.338;2023-06-14T12:20:18;99874.38;;;31.51;28.46
10881;BME280;5493;48.884;8.338;2023-06-14T12:22:50;99875.91;;;31.68;28.26
10881;BME280;5493;48.884;8.338;2023-06-14T12:25:23;99876.59;;;31.42;27.80
10881;BME280;5493;48.884;8.338;2023-06-14T12:27:53;99876.25;;;29.89;29.50
10881;BME280;5493;48.884;8.338;2023-06-14T12:30:20;99877.06;;;30.05;29.93
10881;BME280;5493;48.884;8.338;2023-06-14T12:32:46;99873.56;;;30.74;30.16
10881;BME280;5493;48.884;8.338;2023-06-14T12:35:13;99876.19;;;31.21;29.52
10881;BME280;5493;48.884;8.338;2023-06-14T12:37:40;99869.19;;;31.31;29.31
10881;BME280;5493;48.884;8.338;2023-06-14T12:40:07;99869.03;;;31.85;27.60
10881;BME280;5493;48.884;8.338;2023-06-14T12:42:34;99865.91;;;31.06;29.22
10881;BME280;5493;48.884;8.338;2023-06-14T12:45:02;99871.81;;;30.85;29.89
10881;BME280;5493;48.884;8.338;2023-06-14T12:47:29;99872.56;;;30.82;29.37
10881;BME280;5493;48.884;8.338;2023-06-14T12:49:56;99874.97;;;31.22;29.76
10881;BME280;5493;48.884;8.338;2023-06-14T12:52:22;99868.41;;;31.11;29.76
10881;BME280;5493;48.884;8.338;2023-06-14T12:54:49;99878.94;;;31.59;30.18
10881;BME280;5493;48.884;8.338;2023-06-14T12:57:16;99878.84;;;31.37;29.64
10881;BME280;5493;48.884;8.338;2023-06-14T12:59:42;99880.63;;;30.37;30.15
10881;BME280;5493;48.884;8.338;2023-06-14T13:02:15;99883.59;;;31.13;30.28
10881;BME280;5493;48.884;8.338;2023-06-14T13:04:41;99880.47;;;31.38;30.06
10881;BME280;5493;48.884;8.338;2023-06-14T13:07:08;99884.47;;;30.83;29.38
10881;BME280;5493;48.884;8.338;2023-06-14T13:09:35;99888.22;;;31.48;29.46
10881;BME280;5493;48.884;8.338;2023-06-14T13:12:02;99878.09;;;30.63;29.77
10881;BME280;5493;48.884;8.338;2023-06-14T13:14:30;99880.81;;;30.78;29.86
10881;BME280;5493;48.884;8.338;2023-06-14T13:16:57;99877.38;;;30.85;29.45